.
WxDataArchive / Data Records for 2007-02-15
2007-02-14 February 2007 2007-02-16

Data Records for Thursday, 15 February 2007

Time	Temp	Chill	HIndex	Humid	Dewpt	 Wind 	HiWind	WindDir	Rain 	Barom 
-----	----	-----	------	-----	-----	------	------	-------	-----	----- 
00:00	3.2	3.2	3.2	68	-4.9	0	0	---	0.00	30.201 
00:05	3.2	3.2	3.2	67	-5.2	0	0	---	0.00	30.201 
00:10	3.2	3.2	3.2	67	-5.2	0	0	---	0.00	30.201 
00:15	3.2	3.2	3.2	67	-5.2	0	0	---	0.00	30.201 
00:20	3.0	3.0	3.0	67	-5.4	0	0	---	0.00	30.200 
00:25	2.8	2.8	2.8	67	-5.6	0	0	---	0.00	30.200 
00:30	2.6	2.6	2.6	68	-5.5	0	0	---	0.00	30.202 
00:35	2.4	2.4	2.4	68	-5.7	0	0	---	0.00	30.203 
00:40	2.2	2.2	2.2	68	-5.9	0	0	---	0.00	30.202 
00:45	2.0	2.0	2.0	69	-5.8	0	0	---	0.00	30.203 
00:50	1.8	1.8	1.8	69	-6.0	0	0	---	0.00	30.203 
00:55	1.7	1.7	1.7	69	-6.1	0	0	---	0.00	30.207 
01:00	1.3	1.3	1.3	69	-6.5	0	0	---	0.00	30.210 
01:05	0.9	0.9	0.9	69	-6.8	0	0	---	0.00	30.206 
01:10	0.5	0.5	0.5	70	-6.9	0	0	---	0.00	30.208 
01:15	0.1	0.1	0.1	71	-7.0	0	0	---	0.00	30.214 
01:20	0.0	0.0	0.0	73	-6.6	0	0	---	0.00	30.212 
01:25	0.0	0.0	0.0	73	-6.6	0	0	---	0.00	30.210 
01:30	0.0	0.0	0.0	73	-6.6	0	0	---	0.00	30.206 
01:35	-0.2	-0.2	-0.2	73	-6.8	0	0	---	0.00	30.208 
01:40	-0.2	-0.2	-0.2	73	-6.8	0	0	---	0.00	30.206 
01:45	-0.2	-0.2	-0.2	74	-6.5	0	0	---	0.00	30.207 
01:50	-0.4	-0.4	-0.4	74	-6.7	0	0	---	0.00	30.205 
01:55	-0.4	-0.4	-0.4	74	-6.7	0	0	---	0.00	30.204 
02:00	-0.4	-0.4	-0.4	74	-6.7	0	0	---	0.00	30.204 
02:05	-0.6	-0.6	-0.6	74	-6.9	0	0	---	0.00	30.202 
02:10	-0.6	-0.6	-0.6	75	-6.6	0	0	---	0.00	30.205 
02:15	-0.8	-0.8	-0.8	74	-7.1	0	0	---	0.00	30.203 
02:20	-1.0	-1.0	-1.0	74	-7.3	0	0	---	0.00	30.202 
02:25	-1.4	-1.4	-1.4	74	-7.6	0	0	---	0.00	30.201 
02:30	-1.8	-1.8	-1.8	74	-8.0	0	0	---	0.00	30.203 
02:35	-2.0	-2.0	-2.0	75	-7.9	0	0	---	0.00	30.203 
02:40	-2.2	-2.2	-2.2	76	-7.9	0	0	---	0.00	30.201 
02:45	-2.4	-2.4	-2.4	76	-8.1	0	0	---	0.00	30.200 
02:50	-2.2	-2.2	-2.2	77	-7.6	0	0	---	0.00	30.199 
02:55	-2.2	-2.2	-2.2	77	-7.6	0	0	---	0.00	30.198 
03:00	-2.2	-2.2	-2.2	78	-7.3	0	0	---	0.00	30.192 
03:05	-2.0	-2.0	-2.0	79	-6.9	0	0	---	0.00	30.194 
03:10	-1.8	-1.8	-1.8	79	-6.7	0	0	---	0.00	30.191 
03:15	-1.8	-1.8	-1.8	79	-6.7	0	0	---	0.00	30.190 
03:20	-1.6	-1.6	-1.6	79	-6.5	0	1	270	0.00	30.189 
03:25	-1.4	-1.4	-1.4	80	-6.0	0	0	---	0.00	30.187 
03:30	-1.0	-1.0	-1.0	80	-5.7	0	0	---	0.00	30.187 
03:35	-0.8	-0.8	-0.8	80	-5.5	0	0	---	0.00	30.187 
03:40	-0.4	-0.4	-0.4	81	-4.8	0	0	---	0.00	30.187 
03:45	0.1	0.1	0.1	81	-4.3	0	1	270	0.00	30.186 
03:50	0.7	0.7	0.7	81	-3.7	0	0	---	0.00	30.183 
03:55	1.1	1.1	1.1	81	-3.3	0	0	---	0.00	30.182 
04:00	1.3	1.3	1.3	81	-3.1	0	0	---	0.00	30.179 
04:05	1.5	1.5	1.5	81	-3.0	0	1	270	0.00	30.177 
04:10	2.0	2.0	2.0	81	-2.5	0	1	270	0.00	30.173 
04:15	3.0	3.0	3.0	82	-1.2	0	1	270	0.00	30.171 
04:20	3.5	3.5	3.5	81	-1.0	0	2	270	0.00	30.171 
04:25	4.1	4.1	4.1	81	-0.4	0	1	270	0.00	30.170 
04:30	4.3	4.3	4.3	81	-0.2	0	0	---	0.00	30.169 
04:35	4.5	4.5	4.5	80	-0.3	0	1	270	0.00	30.169 
04:40	4.3	4.3	4.3	79	-0.7	0	0	---	0.00	30.168 
04:45	4.1	4.1	4.1	79	-0.9	0	1	270	0.00	30.166 
04:50	3.9	3.9	3.9	79	-1.1	0	0	---	0.00	30.166 
04:55	3.7	3.7	3.7	79	-1.3	0	0	---	0.00	30.166 
05:00	3.4	3.4	3.4	79	-1.6	0	0	---	0.00	30.166 
05:05	3.2	3.2	3.2	79	-1.8	0	0	---	0.00	30.170 
05:10	3.0	3.0	3.0	79	-2.0	0	0	---	0.00	30.169 
05:15	2.8	2.8	2.8	79	-2.2	0	0	---	0.00	30.170 
05:20	2.6	2.6	2.6	79	-2.4	0	0	---	0.00	30.170 
05:25	2.2	2.2	2.2	79	-2.8	0	0	---	0.00	30.171 
05:30	1.8	1.8	1.8	79	-3.2	0	0	---	0.00	30.171 
05:35	1.5	1.5	1.5	79	-3.5	0	0	---	0.00	30.171 
05:40	1.3	1.3	1.3	79	-3.7	0	0	---	0.00	30.171 
05:45	1.3	1.3	1.3	80	-3.4	0	0	---	0.00	30.171 
05:50	1.3	1.3	1.3	80	-3.4	0	0	---	0.00	30.172 
05:55	1.1	1.1	1.1	80	-3.6	0	0	---	0.00	30.173 
06:00	0.9	0.9	0.9	79	-4.1	0	0	---	0.00	30.174 
06:05	0.7	0.7	0.7	79	-4.3	0	0	---	0.00	30.175 
06:10	0.5	0.5	0.5	79	-4.4	0	0	---	0.00	30.174 
06:15	0.5	0.5	0.5	80	-4.2	0	0	---	0.00	30.174 
06:20	0.5	0.5	0.5	80	-4.2	0	0	---	0.00	30.174 
06:25	0.9	0.9	0.9	81	-3.5	0	0	---	0.00	30.174 
06:30	1.3	1.3	1.3	81	-3.1	0	0	---	0.00	30.174 
06:35	1.7	1.7	1.7	82	-2.5	0	0	---	0.00	30.173 
06:40	1.8	1.8	1.8	81	-2.7	0	0	---	0.00	30.175 
06:45	2.0	2.0	2.0	81	-2.5	0	1	270	0.00	30.174 
06:50	2.2	2.2	2.2	81	-2.3	0	0	---	0.00	30.175 
06:55	2.4	2.4	2.4	81	-2.1	0	0	---	0.00	30.175 
07:00	2.8	2.8	2.8	82	-1.4	0	0	---	0.00	30.173 
07:05	3.0	3.0	3.0	81	-1.5	0	0	---	0.00	30.179 
07:10	3.2	3.2	3.2	81	-1.3	0	0	---	0.00	30.179 
07:15	3.2	3.2	3.2	81	-1.3	0	0	---	0.00	30.178 
07:20	3.4	3.4	3.4	81	-1.1	0	0	---	0.00	30.178 
07:25	3.7	3.7	3.7	81	-0.8	0	1	270	0.00	30.178 
07:30	3.9	3.9	3.9	81	-0.6	0	1	270	0.00	30.179 
07:35	3.9	3.9	3.9	81	-0.6	0	1	270	0.00	30.179 
07:40	4.1	4.1	4.1	81	-0.4	0	1	270	0.00	30.180 
07:45	4.1	4.1	4.1	80	-0.7	0	1	270	0.00	30.183 
07:50	4.3	4.3	4.3	80	-0.5	0	1	270	0.00	30.183 
07:55	4.5	4.5	4.5	81	-0.0	0	1	270	0.00	30.184 
08:00	4.7	4.7	4.7	81	0.2	0	0	---	0.00	30.181 
08:05	5.2	5.2	5.2	82	0.9	0	1	270	0.00	30.186 
08:10	5.6	5.6	5.6	82	1.3	0	1	270	0.00	30.188 
08:15	6.0	6.0	6.0	82	1.7	0	2	270	0.00	30.190 
08:20	6.1	6.1	6.1	82	1.8	0	1	270	0.00	30.192 
08:25	6.3	6.3	6.3	82	2.0	0	1	270	0.00	30.193 
08:30	6.5	6.5	6.5	82	2.2	0	1	270	0.00	30.194 
08:35	6.9	6.9	6.9	82	2.6	0	1	270	0.00	30.193 
08:40	7.2	7.2	7.2	81	2.6	1	3	270	0.00	30.194 
08:45	7.4	7.4	7.4	81	2.8	0	2	270	0.00	30.196 
08:50	7.4	7.4	7.4	81	2.8	1	3	248	0.00	30.197 
08:55	7.6	7.6	7.6	81	3.0	0	2	248	0.00	30.198 
09:00	7.7	7.7	7.7	81	3.1	0	1	248	0.00	30.202 
09:05	7.9	7.9	7.9	80	3.0	0	1	248	0.00	30.204 
09:10	8.1	8.1	8.1	80	3.2	0	1	248	0.00	30.205 
09:15	8.4	8.4	8.4	80	3.5	0	1	248	0.00	30.203 
09:20	8.8	8.8	8.8	79	3.6	0	3	248	0.00	30.202 
09:25	9.3	9.3	9.3	79	4.1	0	2	270	0.00	30.201 
09:30	10.0	10.0	10.0	78	4.5	0	2	270	0.00	30.200 
09:35	10.5	10.5	10.5	77	4.7	1	3	270	0.00	30.200 
09:40	10.9	10.9	10.9	77	5.1	1	2	270	0.00	30.199 
09:45	11.2	11.2	11.2	76	5.1	1	2	270	0.00	30.200 
09:50	11.6	11.6	11.6	76	5.5	1	2	270	0.00	30.199 
09:55	12.1	12.1	12.1	75	5.7	1	2	270	0.00	30.198 
10:00	12.6	12.6	12.6	74	5.9	1	2	270	0.00	30.198 
10:05	13.1	13.1	13.1	74	6.4	1	2	270	0.00	30.197 
10:10	13.6	13.6	13.6	73	6.6	1	3	225	0.00	30.195 
10:15	14.0	14.0	14.0	73	7.0	1	5	248	0.00	30.199 
10:20	14.3	14.3	14.3	72	7.0	1	2	248	0.00	30.199 
10:25	14.4	14.4	14.4	72	7.1	1	4	338	0.00	30.199 
10:30	14.8	14.8	14.8	71	7.1	1	2	315	0.00	30.199 
10:35	15.1	15.1	15.1	71	7.4	0	2	292	0.00	30.198 
10:40	15.4	15.4	15.4	70	7.4	1	3	292	0.00	30.198 
10:45	15.6	15.6	15.6	70	7.6	1	3	248	0.00	30.200 
10:50	15.9	15.9	15.9	70	7.9	0	2	248	0.00	30.197 
10:55	16.2	16.2	16.2	69	7.8	0	3	248	0.00	30.198 
11:00	16.5	16.5	16.5	69	8.1	1	3	248	0.00	30.199 
11:05	16.7	16.7	16.7	68	8.0	1	4	248	0.00	30.198 
11:10	16.9	16.9	16.9	68	8.2	2	5	248	0.00	30.199 
11:15	17.0	17.0	17.0	68	8.3	1	3	270	0.00	30.198 
11:20	17.2	17.2	17.2	68	8.5	1	4	248	0.00	30.198 
11:25	17.5	17.5	17.5	67	8.4	2	6	248	0.00	30.197 
11:30	17.7	17.7	17.7	67	8.6	2	6	248	0.00	30.198 
11:35	17.7	17.7	17.7	67	8.6	1	5	248	0.00	30.198 
11:40	18.0	18.0	18.0	67	8.9	1	5	248	0.00	30.199 
11:45	18.1	18.1	18.1	67	9.0	1	4	248	0.00	30.200 
11:50	18.4	18.4	18.4	67	9.3	1	3	248	0.00	30.201 
11:55	18.3	18.3	18.3	66	8.9	1	3	338	0.00	30.201 
12:00	18.1	18.1	18.1	65	8.3	1	4	338	0.00	30.202 
12:05	18.1	18.1	18.1	66	8.7	1	4	248	0.00	30.203 
12:10	18.4	18.4	18.4	66	9.0	1	3	248	0.00	30.201 
12:15	18.6	18.6	18.6	65	8.8	1	4	248	0.00	30.198 
12:20	18.8	18.8	18.8	66	9.4	1	3	270	0.00	30.198 
12:25	19.1	19.1	19.1	64	9.0	1	5	248	0.00	30.195 
12:30	19.1	19.1	19.1	63	8.6	2	4	315	0.00	30.193 
12:35	18.6	18.6	18.6	64	8.5	1	3	248	0.00	30.192 
12:40	18.6	18.6	18.6	65	8.8	1	4	338	0.00	30.189 
12:45	18.4	18.4	18.4	64	8.3	2	6	270	0.00	30.188 
12:50	18.1	18.1	18.1	64	8.0	1	4	292	0.00	30.187 
12:55	18.4	18.4	18.4	65	8.6	1	3	338	0.00	30.185 
13:00	18.9	18.9	18.9	64	8.8	2	7	315	0.00	30.183 
13:05	19.1	19.1	19.1	65	9.3	2	4	270	0.00	30.184 
13:10	19.2	19.2	19.2	64	9.0	2	5	270	0.00	30.183 
13:15	19.1	19.1	19.1	65	9.3	2	9	292	0.00	30.180 
13:20	19.1	19.1	19.1	64	9.0	3	7	270	0.00	30.176 
13:25	19.1	19.1	19.1	65	9.3	2	6	248	0.00	30.176 
13:30	19.1	19.1	19.1	63	8.6	2	5	315	0.00	30.174 
13:35	18.8	18.8	18.8	63	8.3	1	3	292	0.00	30.175 
13:40	18.8	18.8	18.8	63	8.3	2	5	270	0.00	30.174 
13:45	19.1	19.1	19.1	62	8.3	2	4	270	0.00	30.169 
13:50	19.7	19.7	19.7	63	9.2	1	3	270	0.00	30.168 
13:55	20.3	20.3	20.3	61	9.0	2	6	270	0.00	30.165 
14:00	20.6	20.6	20.6	64	10.4	2	4	248	0.00	30.163 
14:05	20.6	20.6	20.6	62	9.7	3	6	270	0.00	30.161 
14:10	20.8	20.8	20.8	64	10.6	2	4	270	0.00	30.157 
14:15	21.0	21.0	21.0	64	10.8	3	10	270	0.00	30.156 
14:20	20.8	20.8	20.8	66	11.3	1	5	248	0.00	30.156 
14:25	20.5	20.5	20.5	65	10.6	2	5	270	0.00	30.155 
14:30	20.2	20.2	20.2	66	10.7	3	9	270	0.00	30.153 
14:35	20.3	20.3	20.3	67	11.1	3	6	270	0.00	30.152 
14:40	20.3	20.3	20.3	65	10.4	3	6	270	0.00	30.152 
14:45	20.2	20.2	20.2	64	10.0	3	7	270	0.00	30.151 
14:50	20.8	20.8	20.8	65	10.9	2	5	270	0.00	30.150 
14:55	21.3	21.3	21.3	63	10.7	3	6	270	0.00	30.151 
15:00	20.8	15.1	20.8	63	10.2	4	10	270	0.00	30.150 
15:05	20.2	14.4	20.2	65	10.3	4	9	270	0.00	30.149 
15:10	19.9	19.9	19.9	68	11.1	3	6	270	0.00	30.150 
15:15	19.7	19.7	19.7	68	10.9	3	10	270	0.00	30.151 
15:20	19.7	19.7	19.7	67	10.5	3	6	270	0.00	30.151 
15:25	19.5	19.5	19.5	68	10.7	2	5	248	0.00	30.150 
15:30	19.7	19.7	19.7	67	10.5	2	5	248	0.00	30.151 
15:35	19.5	19.5	19.5	68	10.7	2	7	248	0.00	30.149 
15:40	19.2	19.2	19.2	67	10.1	3	7	270	0.00	30.149 
15:45	19.1	19.1	19.1	67	10.0	3	9	248	0.00	30.149 
15:50	18.9	18.9	18.9	67	9.8	3	9	270	0.00	30.148 
15:55	18.8	12.8	18.8	66	9.4	4	11	248	0.00	30.148 
16:00	18.9	18.9	18.9	66	9.4	3	10	248	0.00	30.148 
16:05	18.9	18.9	18.9	65	9.1	3	10	270	0.00	30.146 
16:10	18.8	18.8	18.8	67	9.7	3	10	248	0.00	30.147 
16:15	18.8	18.8	18.8	68	10.0	2	6	270	0.00	30.146 
16:20	18.8	18.8	18.8	67	9.7	3	9	270	0.00	30.146 
16:25	18.6	18.6	18.6	66	9.2	2	5	270	0.00	30.146 
16:30	18.4	18.4	18.4	65	8.6	3	6	270	0.00	30.148 
16:35	18.4	18.4	18.4	65	8.6	3	7	292	0.00	30.149 
16:40	18.3	18.3	18.3	65	8.5	2	4	292	0.00	30.149 
16:45	18.4	18.4	18.4	65	8.6	2	5	270	0.00	30.147 
16:50	18.4	18.4	18.4	65	8.6	2	6	270	0.00	30.146 
16:55	18.6	18.6	18.6	65	8.8	3	12	270	0.00	30.148 
17:00	18.4	12.4	18.4	64	8.3	4	7	270	0.00	30.144 
17:05	18.3	18.3	18.3	65	8.5	2	10	270	0.00	30.150 
17:10	18.4	18.4	18.4	65	8.6	2	7	270	0.00	30.150 
17:15	18.0	18.0	18.0	65	8.3	3	10	270	0.00	30.151 
17:20	17.7	17.7	17.7	65	8.0	3	5	270	0.00	30.151 
17:25	17.2	17.2	17.2	66	7.8	3	9	270	0.00	30.151 
17:30	16.9	16.9	16.9	66	7.5	2	4	270	0.00	30.150 
17:35	16.7	16.7	16.7	66	7.3	2	5	270	0.00	30.151 
17:40	16.5	16.5	16.5	66	7.2	1	6	248	0.00	30.152 
17:45	16.5	16.5	16.5	65	6.8	2	6	292	0.00	30.151 
17:50	16.1	16.1	16.1	64	6.1	2	7	270	0.00	30.154 
17:55	15.9	15.9	15.9	65	6.2	2	4	270	0.00	30.154 
18:00	15.7	15.7	15.7	65	6.1	2	6	292	0.00	30.155 
18:05	15.7	15.7	15.7	65	6.1	2	5	270	0.00	30.154 
18:10	15.4	15.4	15.4	65	5.8	2	6	270	0.00	30.154 
18:15	15.1	15.1	15.1	66	5.8	2	6	292	0.00	30.156 
18:20	14.8	14.8	14.8	65	5.2	2	5	248	0.00	30.155 
18:25	14.4	14.4	14.4	65	4.8	2	6	292	0.00	30.158 
18:30	14.3	14.3	14.3	65	4.7	1	3	270	0.00	30.161 
18:35	14.0	14.0	14.0	65	4.4	1	4	270	0.00	30.159 
18:40	14.0	14.0	14.0	65	4.4	2	5	270	0.00	30.160 
18:45	13.8	13.8	13.8	65	4.2	1	4	270	0.00	30.158 
18:50	13.6	13.6	13.6	65	4.1	1	4	292	0.00	30.161 
18:55	13.6	13.6	13.6	66	4.4	1	3	270	0.00	30.163 
19:00	13.5	13.5	13.5	66	4.3	1	3	292	0.00	30.166 
19:05	13.3	13.3	13.3	66	4.1	2	5	292	0.00	30.166 
19:10	13.1	13.1	13.1	66	3.9	2	4	270	0.00	30.167 
19:15	12.9	12.9	12.9	67	4.0	1	3	270	0.00	30.168 
19:20	12.8	12.8	12.8	67	3.9	1	3	270	0.00	30.167 
19:25	12.6	12.6	12.6	67	3.8	1	4	270	0.00	30.167 
19:30	12.4	12.4	12.4	67	3.6	1	3	270	0.00	30.168 
19:35	12.3	12.3	12.3	67	3.5	0	2	270	0.00	30.169 
19:40	11.9	11.9	11.9	68	3.4	1	2	248	0.00	30.170 
19:45	11.7	11.7	11.7	68	3.2	1	6	248	0.00	30.169 
19:50	11.6	11.6	11.6	68	3.1	1	3	248	0.00	30.169 
19:55	11.4	11.4	11.4	68	2.9	1	4	248	0.00	30.169 
20:00	11.2	11.2	11.2	68	2.7	1	3	270	0.00	30.170 
20:05	11.1	11.1	11.1	68	2.6	1	4	270	0.00	30.168 
20:10	11.1	11.1	11.1	68	2.6	1	2	270	0.00	30.168 
20:15	10.9	10.9	10.9	68	2.4	1	2	270	0.00	30.165 
20:20	10.7	10.7	10.7	68	2.3	0	3	270	0.00	30.164 
20:25	10.5	10.5	10.5	69	2.4	1	2	270	0.00	30.166 
20:30	10.4	10.4	10.4	69	2.3	1	3	270	0.00	30.163 
20:35	10.2	10.2	10.2	69	2.1	1	3	270	0.00	30.162 
20:40	10.2	10.2	10.2	69	2.1	1	2	270	0.00	30.164 
20:45	10.0	10.0	10.0	69	1.9	1	3	270	0.00	30.161 
20:50	9.9	9.9	9.9	69	1.8	0	2	270	0.00	30.160 
20:55	9.5	9.5	9.5	69	1.4	0	2	270	0.00	30.161 
21:00	9.3	9.3	9.3	69	1.2	1	3	248	0.00	30.166 
21:05	9.2	9.2	9.2	70	1.4	1	4	248	0.00	30.162 
21:10	9.0	9.0	9.0	69	0.9	2	5	248	0.00	30.161 
21:15	8.8	8.8	8.8	69	0.7	1	5	248	0.00	30.161 
21:20	8.4	8.4	8.4	68	0.0	1	4	270	0.00	30.159 
21:25	8.1	8.1	8.1	68	-0.2	2	5	248	0.00	30.159 
21:30	7.9	7.9	7.9	67	-0.7	1	4	248	0.00	30.159 
21:35	7.7	7.7	7.7	67	-0.9	1	4	248	0.00	30.162 
21:40	7.4	7.4	7.4	67	-1.2	1	3	248	0.00	30.163 
21:45	7.2	7.2	7.2	67	-1.4	1	6	248	0.00	30.161 
21:50	7.2	7.2	7.2	67	-1.4	1	4	270	0.00	30.163 
21:55	7.0	7.0	7.0	67	-1.6	2	6	248	0.00	30.163 
22:00	7.0	7.0	7.0	67	-1.6	2	7	270	0.00	30.163 
22:05	6.9	6.9	6.9	67	-1.7	1	4	248	0.00	30.159 
22:10	6.7	6.7	6.7	68	-1.6	2	5	248	0.00	30.157 
22:15	6.7	6.7	6.7	68	-1.6	2	9	248	0.00	30.150 
22:20	6.7	6.7	6.7	68	-1.6	2	6	248	0.00	30.149 
22:25	6.7	6.7	6.7	68	-1.6	1	5	248	0.00	30.150 
22:30	6.7	6.7	6.7	68	-1.6	1	4	248	0.00	30.147 
22:35	6.7	6.7	6.7	67	-1.9	3	6	270	0.00	30.145 
22:40	6.5	6.5	6.5	67	-2.1	2	7	248	0.00	30.144 
22:45	6.5	6.5	6.5	67	-2.1	2	9	270	0.00	30.146 
22:50	6.3	6.3	6.3	67	-2.3	2	5	270	0.00	30.146 
22:55	6.3	6.3	6.3	67	-2.3	2	9	248	0.00	30.147 
23:00	6.1	6.1	6.1	67	-2.5	2	6	248	0.00	30.148 
23:05	6.0	6.0	6.0	67	-2.6	1	3	248	0.00	30.147 
23:10	5.8	5.8	5.8	67	-2.8	2	9	248	0.00	30.147 
23:15	5.6	5.6	5.6	67	-2.9	2	9	248	0.00	30.147 
23:20	5.4	5.4	5.4	68	-2.8	2	6	270	0.00	30.146 
23:25	5.4	5.4	5.4	68	-2.8	2	7	248	0.00	30.148 
23:30	5.0	5.0	5.0	68	-3.2	2	6	270	0.00	30.148 
23:35	5.0	5.0	5.0	68	-3.2	2	10	248	0.00	30.147 
23:40	4.8	4.8	4.8	68	-3.4	2	6	248	0.00	30.147 
23:45	4.7	4.7	4.7	68	-3.5	2	5	248	0.00	30.148 
23:50	4.5	4.5	4.5	69	-3.4	2	9	270	0.00	30.147 
23:55	4.5	4.5	4.5	69	-3.4	1	7	248	0.00	30.144 

CoCoRaHS
IN-AL-39
A2 Web Hosting
Creative Commons License
GoDaddy
Look for:

loaded 2017-12-12 17:10:56 • last modified 2010-11-18 10:43:29
Privacy PolicyDisclaimer
• wx.awcolley.com is powered by PmWiki v.2002016 •
• all content (unless otherwise noted) © 2017 A W Colley